sensor_id;sensor_type;location;lat;lon;timestamp;P1;durP1;ratioP1;P2;durP2;ratioP2
12950;SDS011;6540;50.858;7.232;2023-02-03T00:00:59;6.83;;;4.40;;
12950;SDS011;6540;50.858;7.232;2023-02-03T00:03:25;8.23;;;4.30;;
12950;SDS011;6540;50.858;7.232;2023-02-03T00:05:51;7.93;;;4.60;;
12950;SDS011;6540;50.858;7.232;2023-02-03T00:08:16;5.47;;;3.50;;
12950;SDS011;6540;50.858;7.232;2023-02-03T00:10:43;7.97;;;3.77;;
12950;SDS011;6540;50.858;7.232;2023-02-03T00:13:09;7.77;;;4.57;;
12950;SDS011;6540;50.858;7.232;2023-02-03T00:15:35;6.53;;;4.40;;
12950;SDS011;6540;50.858;7.232;2023-02-03T00:18:00;6.10;;;4.17;;
12950;SDS011;6540;50.858;7.232;2023-02-03T00:20:25;6.37;;;4.53;;
12950;SDS011;6540;50.858;7.232;2023-02-03T00:22:53;6.87;;;4.33;;
12950;SDS011;6540;50.858;7.232;2023-02-03T00:25:19;10.23;;;5.07;;
12950;SDS011;6540;50.858;7.232;2023-02-03T00:27:45;6.87;;;4.30;;
12950;SDS011;6540;50.858;7.232;2023-02-03T00:30:11;5.70;;;4.27;;
12950;SDS011;6540;50.858;7.232;2023-02-03T00:32:36;4.83;;;4.43;;
12950;SDS011;6540;50.858;7.232;2023-02-03T00:35:02;9.80;;;4.30;;
12950;SDS011;6540;50.858;7.232;2023-02-03T00:37:28;6.77;;;3.70;;
12950;SDS011;6540;50.858;7.232;2023-02-03T00:39:53;3.93;;;3.50;;
12950;SDS011;6540;50.858;7.232;2023-02-03T00:42:19;6.60;;;3.97;;
12950;SDS011;6540;50.858;7.232;2023-02-03T00:44:44;5.40;;;3.33;;
12950;SDS011;6540;50.858;7.232;2023-02-03T00:47:09;7.63;;;3.73;;
12950;SDS011;6540;50.858;7.232;2023-02-03T00:49:35;6.17;;;3.10;;
12950;SDS011;6540;50.858;7.232;2023-02-03T00:52:00;5.80;;;3.93;;
12950;SDS011;6540;50.858;7.232;2023-02-03T00:54:26;8.73;;;3.63;;
12950;SDS011;6540;50.858;7.232;2023-02-03T00:56:51;4.27;;;3.00;;
12950;SDS011;6540;50.858;7.232;2023-02-03T00:59:16;6.57;;;3.90;;
12950;SDS011;6540;50.858;7.232;2023-02-03T01:01:41;5.87;;;3.83;;
12950;SDS011;6540;50.858;7.232;2023-02-03T01:04:07;8.00;;;3.30;;
12950;SDS011;6540;50.858;7.232;2023-02-03T01:06:32;3.57;;;3.17;;
12950;SDS011;6540;50.858;7.232;2023-02-03T01:08:58;5.17;;;3.20;;
12950;SDS011;6540;50.858;7.232;2023-02-03T01:11:26;4.37;;;3.10;;
12950;SDS011;6540;50.858;7.232;2023-02-03T01:13:52;8.23;;;2.87;;
12950;SDS011;6540;50.858;7.232;2023-02-03T01:16:19;7.50;;;3.10;;
12950;SDS011;6540;50.858;7.232;2023-02-03T01:18:46;5.07;;;3.03;;
12950;SDS011;6540;50.858;7.232;2023-02-03T01:21:14;3.40;;;2.73;;
12950;SDS011;6540;50.858;7.232;2023-02-03T01:23:44;3.63;;;3.23;;
12950;SDS011;6540;50.858;7.232;2023-02-03T01:26:11;3.93;;;2.50;;
12950;SDS011;6540;50.858;7.232;2023-02-03T01:28:37;4.40;;;2.80;;
12950;SDS011;6540;50.858;7.232;2023-02-03T01:31:07;4.73;;;2.33;;
12950;SDS011;6540;50.858;7.232;2023-02-03T01:33:37;4.33;;;2.37;;
12950;SDS011;6540;50.858;7.232;2023-02-03T01:36:05;4.30;;;2.73;;
12950;SDS011;6540;50.858;7.232;2023-02-03T01:38:34;8.87;;;2.93;;
12950;SDS011;6540;50.858;7.232;2023-02-03T01:41:00;6.83;;;3.30;;
12950;SDS011;6540;50.858;7.232;2023-02-03T01:45:58;5.70;;;2.57;;
12950;SDS011;6540;50.858;7.232;2023-02-03T01:48:28;3.10;;;2.13;;
12950;SDS011;6540;50.858;7.232;2023-02-03T01:50:56;4.77;;;3.13;;
12950;SDS011;6540;50.858;7.232;2023-02-03T01:53:24;4.03;;;2.13;;
12950;SDS011;6540;50.858;7.232;2023-02-03T01:55:50;5.67;;;3.27;;
12950;SDS011;6540;50.858;7.232;2023-02-03T01:58:26;6.70;;;2.63;;
12950;SDS011;6540;50.858;7.232;2023-02-03T02:00:55;3.57;;;2.77;;
12950;SDS011;6540;50.858;7.232;2023-02-03T02:03:26;8.67;;;2.60;;
12950;SDS011;6540;50.858;7.232;2023-02-03T02:06:00;5.63;;;2.53;;
12950;SDS011;6540;50.858;7.232;2023-02-03T02:08:28;5.67;;;3.03;;
12950;SDS011;6540;50.858;7.232;2023-02-03T02:10:55;5.17;;;2.70;;
12950;SDS011;6540;50.858;7.232;2023-02-03T02:13:21;7.70;;;3.60;;
12950;SDS011;6540;50.858;7.232;2023-02-03T02:35:55;5.90;;;2.30;;
12950;SDS011;6540;50.858;7.232;2023-02-03T02:44:57;5.70;;;2.73;;
12950;SDS011;6540;50.858;7.232;2023-02-03T02:47:29;3.30;;;2.13;;
12950;SDS011;6540;50.858;7.232;2023-02-03T02:49:58;3.90;;;2.17;;
12950;SDS011;6540;50.858;7.232;2023-02-03T02:52:25;2.53;;;2.33;;
12950;SDS011;6540;50.858;7.232;2023-02-03T02:54:55;2.97;;;2.00;;
12950;SDS011;6540;50.858;7.232;2023-02-03T02:57:25;4.97;;;2.80;;
12950;SDS011;6540;50.858;7.232;2023-02-03T02:59:53;5.50;;;2.50;;
12950;SDS011;6540;50.858;7.232;2023-02-03T03:02:18;6.07;;;2.27;;
12950;SDS011;6540;50.858;7.232;2023-02-03T03:04:44;3.57;;;2.23;;
12950;SDS011;6540;50.858;7.232;2023-02-03T03:07:15;5.23;;;2.53;;
12950;SDS011;6540;50.858;7.232;2023-02-03T03:09:48;4.87;;;2.37;;
12950;SDS011;6540;50.858;7.232;2023-02-03T03:12:23;2.50;;;2.30;;
12950;SDS011;6540;50.858;7.232;2023-02-03T03:14:58;4.67;;;2.50;;
12950;SDS011;6540;50.858;7.232;2023-02-03T03:17:31;7.77;;;2.80;;
12950;SDS011;6540;50.858;7.232;2023-02-03T03:20:00;2.70;;;2.33;;
12950;SDS011;6540;50.858;7.232;2023-02-03T03:22:32;4.07;;;2.50;;
12950;SDS011;6540;50.858;7.232;2023-02-03T03:25:18;4.17;;;2.27;;
12950;SDS011;6540;50.858;7.232;2023-02-03T03:27:49;4.27;;;2.60;;
12950;SDS011;6540;50.858;7.232;2023-02-03T03:30:22;2.23;;;1.97;;
12950;SDS011;6540;50.858;7.232;2023-02-03T03:32:49;3.90;;;2.67;;
12950;SDS011;6540;50.858;7.232;2023-02-03T03:35:15;3.73;;;3.03;;
12950;SDS011;6540;50.858;7.232;2023-02-03T03:37:46;5.23;;;2.83;;
12950;SDS011;6540;50.858;7.232;2023-02-03T03:40:37;2.67;;;2.37;;
12950;SDS011;6540;50.858;7.232;2023-02-03T03:43:07;5.23;;;2.33;;
12950;SDS011;6540;50.858;7.232;2023-02-03T03:48:33;2.93;;;2.33;;
12950;SDS011;6540;50.858;7.232;2023-02-03T03:51:05;5.13;;;2.73;;
12950;SDS011;6540;50.858;7.232;2023-02-03T03:53:43;6.47;;;2.23;;
12950;SDS011;6540;50.858;7.232;2023-02-03T03:56:13;6.00;;;3.20;;
12950;SDS011;6540;50.858;7.232;2023-02-03T03:58:43;4.83;;;2.80;;
12950;SDS011;6540;50.858;7.232;2023-02-03T04:01:13;5.53;;;2.60;;
12950;SDS011;6540;50.858;7.232;2023-02-03T04:03:42;5.67;;;2.60;;
12950;SDS011;6540;50.858;7.232;2023-02-03T04:06:11;5.83;;;2.60;;
12950;SDS011;6540;50.858;7.232;2023-02-03T04:08:37;6.63;;;2.47;;
12950;SDS011;6540;50.858;7.232;2023-02-03T04:11:03;5.30;;;2.23;;
12950;SDS011;6540;50.858;7.232;2023-02-03T04:13:29;4.67;;;2.53;;
12950;SDS011;6540;50.858;7.232;2023-02-03T04:15:54;8.77;;;2.90;;
12950;SDS011;6540;50.858;7.232;2023-02-03T04:18:20;3.90;;;2.73;;
12950;SDS011;6540;50.858;7.232;2023-02-03T04:20:45;4.77;;;2.73;;
12950;SDS011;6540;50.858;7.232;2023-02-03T04:23:10;5.77;;;2.93;;
12950;SDS011;6540;50.858;7.232;2023-02-03T04:25:36;6.77;;;2.77;;
12950;SDS011;6540;50.858;7.232;2023-02-03T04:28:01;5.37;;;2.30;;
12950;SDS011;6540;50.858;7.232;2023-02-03T04:30:27;5.43;;;2.80;;
12950;SDS011;6540;50.858;7.232;2023-02-03T04:32:52;7.43;;;2.60;;
12950;SDS011;6540;50.858;7.232;2023-02-03T04:35:18;5.10;;;2.57;;
12950;SDS011;6540;50.858;7.232;2023-02-03T04:37:44;2.43;;;2.23;;
12950;SDS011;6540;50.858;7.232;2023-02-03T04:40:10;6.53;;;2.87;;
12950;SDS011;6540;50.858;7.232;2023-02-03T04:42:36;6.60;;;2.67;;
12950;SDS011;6540;50.858;7.232;2023-02-03T04:45:03;5.83;;;2.60;;
12950;SDS011;6540;50.858;7.232;2023-02-03T04:47:29;5.53;;;3.03;;
12950;SDS011;6540;50.858;7.232;2023-02-03T04:49:54;7.77;;;2.23;;
12950;SDS011;6540;50.858;7.232;2023-02-03T04:52:19;4.70;;;2.47;;
12950;SDS011;6540;50.858;7.232;2023-02-03T04:54:45;6.40;;;2.37;;
12950;SDS011;6540;50.858;7.232;2023-02-03T04:57:10;3.13;;;2.20;;
12950;SDS011;6540;50.858;7.232;2023-02-03T04:59:35;3.57;;;2.40;;
12950;SDS011;6540;50.858;7.232;2023-02-03T05:02:01;2.73;;;1.90;;
12950;SDS011;6540;50.858;7.232;2023-02-03T05:04:28;3.27;;;2.33;;
12950;SDS011;6540;50.858;7.232;2023-02-03T05:06:53;5.67;;;2.63;;
12950;SDS011;6540;50.858;7.232;2023-02-03T05:09:20;8.67;;;2.23;;
12950;SDS011;6540;50.858;7.232;2023-02-03T05:11:45;5.17;;;2.37;;
12950;SDS011;6540;50.858;7.232;2023-02-03T05:14:10;4.60;;;2.00;;
12950;SDS011;6540;50.858;7.232;2023-02-03T05:16:36;6.93;;;2.77;;
12950;SDS011;6540;50.858;7.232;2023-02-03T05:19:01;2.80;;;1.80;;
12950;SDS011;6540;50.858;7.232;2023-02-03T05:21:27;2.90;;;2.03;;
12950;SDS011;6540;50.858;7.232;2023-02-03T05:23:52;5.80;;;2.70;;
12950;SDS011;6540;50.858;7.232;2023-02-03T05:26:18;3.43;;;1.90;;
12950;SDS011;6540;50.858;7.232;2023-02-03T05:28:43;9.10;;;2.73;;
12950;SDS011;6540;50.858;7.232;2023-02-03T05:31:08;5.60;;;2.17;;
12950;SDS011;6540;50.858;7.232;2023-02-03T05:33:34;5.73;;;2.37;;
12950;SDS011;6540;50.858;7.232;2023-02-03T05:35:59;2.60;;;2.07;;
12950;SDS011;6540;50.858;7.232;2023-02-03T05:38:24;6.07;;;3.10;;
12950;SDS011;6540;50.858;7.232;2023-02-03T05:40:50;4.10;;;2.00;;
12950;SDS011;6540;50.858;7.232;2023-02-03T05:43:35;6.20;;;2.23;;
12950;SDS011;6540;50.858;7.232;2023-02-03T05:46:02;6.03;;;2.20;;
12950;SDS011;6540;50.858;7.232;2023-02-03T05:48:28;6.27;;;2.07;;
12950;SDS011;6540;50.858;7.232;2023-02-03T05:50:54;3.53;;;2.50;;
12950;SDS011;6540;50.858;7.232;2023-02-03T05:53:19;2.87;;;2.00;;
12950;SDS011;6540;50.858;7.232;2023-02-03T05:55:45;3.13;;;2.73;;
12950;SDS011;6540;50.858;7.232;2023-02-03T05:58:10;7.67;;;2.93;;
12950;SDS011;6540;50.858;7.232;2023-02-03T06:00:36;7.37;;;2.40;;
12950;SDS011;6540;50.858;7.232;2023-02-03T06:03:01;4.53;;;2.37;;
12950;SDS011;6540;50.858;7.232;2023-02-03T06:05:28;4.53;;;2.23;;
12950;SDS011;6540;50.858;7.232;2023-02-03T06:07:54;3.60;;;2.00;;
12950;SDS011;6540;50.858;7.232;2023-02-03T06:10:20;2.70;;;2.10;;
12950;SDS011;6540;50.858;7.232;2023-02-03T06:12:46;7.33;;;2.27;;
12950;SDS011;6540;50.858;7.232;2023-02-03T06:15:13;3.97;;;2.00;;
12950;SDS011;6540;50.858;7.232;2023-02-03T06:17:38;5.87;;;2.00;;
12950;SDS011;6540;50.858;7.232;2023-02-03T06:20:04;3.00;;;1.70;;
12950;SDS011;6540;50.858;7.232;2023-02-03T06:22:31;2.00;;;1.80;;
12950;SDS011;6540;50.858;7.232;2023-02-03T06:24:57;3.70;;;2.00;;
12950;SDS011;6540;50.858;7.232;2023-02-03T06:27:22;3.23;;;2.00;;
12950;SDS011;6540;50.858;7.232;2023-02-03T06:29:48;5.27;;;2.30;;
12950;SDS011;6540;50.858;7.232;2023-02-03T06:32:13;2.50;;;1.90;;
12950;SDS011;6540;50.858;7.232;2023-02-03T06:34:38;5.10;;;1.93;;
12950;SDS011;6540;50.858;7.232;2023-02-03T06:37:04;3.93;;;1.47;;
12950;SDS011;6540;50.858;7.232;2023-02-03T06:39:29;4.30;;;1.87;;
12950;SDS011;6540;50.858;7.232;2023-02-03T06:41:55;6.33;;;2.23;;
12950;SDS011;6540;50.858;7.232;2023-02-03T06:44:20;3.27;;;1.60;;
12950;SDS011;6540;50.858;7.232;2023-02-03T06:46:46;8.27;;;2.13;;
12950;SDS011;6540;50.858;7.232;2023-02-03T06:49:11;2.97;;;2.13;;
12950;SDS011;6540;50.858;7.232;2023-02-03T06:51:37;2.97;;;1.63;;
12950;SDS011;6540;50.858;7.232;2023-02-03T06:54:02;4.73;;;1.80;;
12950;SDS011;6540;50.858;7.232;2023-02-03T06:56:29;8.80;;;2.00;;
12950;SDS011;6540;50.858;7.232;2023-02-03T06:58:55;3.80;;;1.70;;
12950;SDS011;6540;50.858;7.232;2023-02-03T07:01:21;3.00;;;1.67;;
12950;SDS011;6540;50.858;7.232;2023-02-03T07:03:47;2.87;;;1.83;;
12950;SDS011;6540;50.858;7.232;2023-02-03T07:06:12;4.67;;;1.97;;
12950;SDS011;6540;50.858;7.232;2023-02-03T07:08:38;6.07;;;2.37;;
12950;SDS011;6540;50.858;7.232;2023-02-03T07:11:04;3.80;;;1.67;;
12950;SDS011;6540;50.858;7.232;2023-02-03T07:13:29;3.77;;;2.30;;
12950;SDS011;6540;50.858;7.232;2023-02-03T07:15:54;5.43;;;1.90;;
12950;SDS011;6540;50.858;7.232;2023-02-03T07:18:20;2.43;;;1.63;;
12950;SDS011;6540;50.858;7.232;2023-02-03T07:20:48;3.27;;;2.07;;
12950;SDS011;6540;50.858;7.232;2023-02-03T07:23:14;2.73;;;1.80;;
12950;SDS011;6540;50.858;7.232;2023-02-03T07:25:40;3.67;;;2.10;;
12950;SDS011;6540;50.858;7.232;2023-02-03T07:28:05;7.33;;;2.10;;
12950;SDS011;6540;50.858;7.232;2023-02-03T07:30:31;2.97;;;2.00;;
12950;SDS011;6540;50.858;7.232;2023-02-03T07:32:57;3.10;;;1.97;;
12950;SDS011;6540;50.858;7.232;2023-02-03T07:35:22;3.30;;;1.80;;
12950;SDS011;6540;50.858;7.232;2023-02-03T07:37:47;3.67;;;1.80;;
12950;SDS011;6540;50.858;7.232;2023-02-03T07:40:13;3.93;;;1.97;;
12950;SDS011;6540;50.858;7.232;2023-02-03T07:42:42;2.50;;;1.97;;
12950;SDS011;6540;50.858;7.232;2023-02-03T07:45:09;1.87;;;1.63;;
12950;SDS011;6540;50.858;7.232;2023-02-03T07:47:35;3.73;;;1.90;;
12950;SDS011;6540;50.858;7.232;2023-02-03T07:50:01;3.53;;;1.77;;
12950;SDS011;6540;50.858;7.232;2023-02-03T07:52:26;1.50;;;1.40;;
12950;SDS011;6540;50.858;7.232;2023-02-03T07:54:51;2.37;;;1.77;;
12950;SDS011;6540;50.858;7.232;2023-02-03T07:57:17;3.00;;;1.90;;
12950;SDS011;6540;50.858;7.232;2023-02-03T07:59:42;5.57;;;2.17;;
12950;SDS011;6540;50.858;7.232;2023-02-03T08:02:08;8.07;;;2.23;;
12950;SDS011;6540;50.858;7.232;2023-02-03T08:04:35;5.63;;;1.70;;
12950;SDS011;6540;50.858;7.232;2023-02-03T08:07:01;3.27;;;1.50;;
12950;SDS011;6540;50.858;7.232;2023-02-03T08:09:27;8.03;;;2.00;;
12950;SDS011;6540;50.858;7.232;2023-02-03T08:11:52;1.80;;;1.50;;
12950;SDS011;6540;50.858;7.232;2023-02-03T08:14:17;2.27;;;1.40;;
12950;SDS011;6540;50.858;7.232;2023-02-03T08:16:43;6.07;;;1.80;;
12950;SDS011;6540;50.858;7.232;2023-02-03T08:19:09;4.53;;;1.90;;
12950;SDS011;6540;50.858;7.232;2023-02-03T08:21:35;2.10;;;1.47;;
12950;SDS011;6540;50.858;7.232;2023-02-03T08:24:03;4.10;;;1.80;;
12950;SDS011;6540;50.858;7.232;2023-02-03T08:26:28;3.87;;;1.30;;
12950;SDS011;6540;50.858;7.232;2023-02-03T08:28:54;2.80;;;1.50;;
12950;SDS011;6540;50.858;7.232;2023-02-03T08:31:19;3.23;;;1.67;;
12950;SDS011;6540;50.858;7.232;2023-02-03T08:33:45;6.20;;;2.17;;
12950;SDS011;6540;50.858;7.232;2023-02-03T08:36:10;3.97;;;1.50;;
12950;SDS011;6540;50.858;7.232;2023-02-03T08:38:36;3.17;;;1.83;;
12950;SDS011;6540;50.858;7.232;2023-02-03T08:41:09;2.73;;;1.53;;
12950;SDS011;6540;50.858;7.232;2023-02-03T08:43:36;2.67;;;1.60;;
12950;SDS011;6540;50.858;7.232;2023-02-03T08:46:03;2.10;;;1.40;;
12950;SDS011;6540;50.858;7.232;2023-02-03T08:48:30;4.73;;;1.80;;
12950;SDS011;6540;50.858;7.232;2023-02-03T08:50:55;3.30;;;1.50;;
12950;SDS011;6540;50.858;7.232;2023-02-03T08:53:20;3.77;;;2.27;;
12950;SDS011;6540;50.858;7.232;2023-02-03T08:55:46;2.40;;;1.30;;
12950;SDS011;6540;50.858;7.232;2023-02-03T08:58:11;2.63;;;1.40;;
12950;SDS011;6540;50.858;7.232;2023-02-03T09:00:37;4.00;;;1.60;;
12950;SDS011;6540;50.858;7.232;2023-02-03T09:03:02;5.70;;;1.87;;
12950;SDS011;6540;50.858;7.232;2023-02-03T09:05:29;4.87;;;1.80;;
12950;SDS011;6540;50.858;7.232;2023-02-03T09:07:55;3.37;;;1.70;;
12950;SDS011;6540;50.858;7.232;2023-02-03T09:10:20;1.60;;;1.50;;
12950;SDS011;6540;50.858;7.232;2023-02-03T09:12:45;5.97;;;1.67;;
12950;SDS011;6540;50.858;7.232;2023-02-03T09:15:11;2.30;;;1.50;;
12950;SDS011;6540;50.858;7.232;2023-02-03T09:17:36;4.63;;;2.20;;
12950;SDS011;6540;50.858;7.232;2023-02-03T09:20:01;3.97;;;1.87;;
12950;SDS011;6540;50.858;7.232;2023-02-03T09:22:27;2.80;;;2.17;;
12950;SDS011;6540;50.858;7.232;2023-02-03T09:24:52;7.47;;;1.97;;
12950;SDS011;6540;50.858;7.232;2023-02-03T09:27:17;4.00;;;1.87;;
12950;SDS011;6540;50.858;7.232;2023-02-03T09:29:43;1.63;;;1.30;;
12950;SDS011;6540;50.858;7.232;2023-02-03T09:32:08;5.33;;;1.40;;
12950;SDS011;6540;50.858;7.232;2023-02-03T09:34:34;3.50;;;1.90;;
12950;SDS011;6540;50.858;7.232;2023-02-03T09:37:00;2.57;;;1.80;;
12950;SDS011;6540;50.858;7.232;2023-02-03T09:39:26;3.67;;;1.60;;
12950;SDS011;6540;50.858;7.232;2023-02-03T09:42:17;3.37;;;1.67;;
12950;SDS011;6540;50.858;7.232;2023-02-03T09:47:34;4.63;;;1.60;;
12950;SDS011;6540;50.858;7.232;2023-02-03T09:50:06;3.83;;;1.80;;
12950;SDS011;6540;50.858;7.232;2023-02-03T09:52:37;4.33;;;2.53;;
12950;SDS011;6540;50.858;7.232;2023-02-03T09:55:12;2.10;;;1.90;;
12950;SDS011;6540;50.858;7.232;2023-02-03T09:57:47;5.20;;;2.03;;
12950;SDS011;6540;50.858;7.232;2023-02-03T10:00:22;3.83;;;2.20;;
12950;SDS011;6540;50.858;7.232;2023-02-03T10:13:22;3.40;;;2.13;;
12950;SDS011;6540;50.858;7.232;2023-02-03T10:15:58;1.97;;;1.77;;
12950;SDS011;6540;50.858;7.232;2023-02-03T10:18:33;6.20;;;2.40;;
12950;SDS011;6540;50.858;7.232;2023-02-03T10:21:09;4.07;;;2.00;;
12950;SDS011;6540;50.858;7.232;2023-02-03T10:23:40;5.03;;;2.30;;
12950;SDS011;6540;50.858;7.232;2023-02-03T10:26:08;6.73;;;2.23;;
12950;SDS011;6540;50.858;7.232;2023-02-03T10:28:56;4.00;;;2.17;;
12950;SDS011;6540;50.858;7.232;2023-02-03T10:31:26;5.17;;;2.23;;
12950;SDS011;6540;50.858;7.232;2023-02-03T10:33:59;4.33;;;1.87;;
12950;SDS011;6540;50.858;7.232;2023-02-03T10:36:40;5.00;;;2.23;;
12950;SDS011;6540;50.858;7.232;2023-02-03T10:39:16;2.40;;;1.70;;
12950;SDS011;6540;50.858;7.232;2023-02-03T10:41:48;3.53;;;1.87;;
12950;SDS011;6540;50.858;7.232;2023-02-03T10:44:13;7.90;;;2.57;;
12950;SDS011;6540;50.858;7.232;2023-02-03T10:46:39;4.67;;;2.30;;
12950;SDS011;6540;50.858;7.232;2023-02-03T10:49:07;3.13;;;2.47;;
12950;SDS011;6540;50.858;7.232;2023-02-03T10:51:39;2.13;;;1.97;;
12950;SDS011;6540;50.858;7.232;2023-02-03T10:54:24;5.60;;;2.13;;
12950;SDS011;6540;50.858;7.232;2023-02-03T10:56:51;2.03;;;1.93;;
12950;SDS011;6540;50.858;7.232;2023-02-03T10:59:28;3.97;;;2.10;;
12950;SDS011;6540;50.858;7.232;2023-02-03T11:01:55;2.43;;;2.10;;
12950;SDS011;6540;50.858;7.232;2023-02-03T11:04:26;2.80;;;1.90;;
12950;SDS011;6540;50.858;7.232;2023-02-03T11:06:57;3.60;;;2.30;;
12950;SDS011;6540;50.858;7.232;2023-02-03T11:12:17;8.90;;;3.37;;
12950;SDS011;6540;50.858;7.232;2023-02-03T11:17:20;2.40;;;2.20;;
12950;SDS011;6540;50.858;7.232;2023-02-03T11:19:48;5.73;;;3.00;;
12950;SDS011;6540;50.858;7.232;2023-02-03T11:22:28;3.47;;;2.87;;
12950;SDS011;6540;50.858;7.232;2023-02-03T11:24:55;4.30;;;2.93;;
12950;SDS011;6540;50.858;7.232;2023-02-03T11:27:22;4.17;;;3.03;;
12950;SDS011;6540;50.858;7.232;2023-02-03T11:29:50;3.43;;;2.60;;
12950;SDS011;6540;50.858;7.232;2023-02-03T11:32:34;3.90;;;2.80;;
12950;SDS011;6540;50.858;7.232;2023-02-03T11:37:46;4.77;;;3.03;;
12950;SDS011;6540;50.858;7.232;2023-02-03T11:43:03;5.90;;;3.00;;
12950;SDS011;6540;50.858;7.232;2023-02-03T11:45:27;3.87;;;3.30;;
12950;SDS011;6540;50.858;7.232;2023-02-03T11:48:01;3.07;;;2.87;;
12950;SDS011;6540;50.858;7.232;2023-02-03T11:50:37;7.17;;;3.10;;
12950;SDS011;6540;50.858;7.232;2023-02-03T11:53:30;6.37;;;3.33;;
12950;SDS011;6540;50.858;7.232;2023-02-03T11:56:05;3.80;;;2.80;;
12950;SDS011;6540;50.858;7.232;2023-02-03T12:34:12;5.40;;;4.60;;
12950;SDS011;6540;50.858;7.232;2023-02-03T12:41:54;6.40;;;3.93;;
12950;SDS011;6540;50.858;7.232;2023-02-03T12:44:27;5.67;;;4.50;;
12950;SDS011;6540;50.858;7.232;2023-02-03T12:47:03;9.07;;;4.63;;
12950;SDS011;6540;50.858;7.232;2023-02-03T12:49:43;6.90;;;4.40;;
12950;SDS011;6540;50.858;7.232;2023-02-03T12:54:58;7.03;;;4.97;;
12950;SDS011;6540;50.858;7.232;2023-02-03T12:57:45;7.83;;;4.87;;
12950;SDS011;6540;50.858;7.232;2023-02-03T13:00:32;7.70;;;4.90;;
12950;SDS011;6540;50.858;7.232;2023-02-03T13:03:25;5.90;;;4.30;;
12950;SDS011;6540;50.858;7.232;2023-02-03T13:06:11;6.20;;;5.03;;
12950;SDS011;6540;50.858;7.232;2023-02-03T13:08:42;7.17;;;5.47;;
12950;SDS011;6540;50.858;7.232;2023-02-03T13:17:24;6.33;;;5.50;;
12950;SDS011;6540;50.858;7.232;2023-02-03T13:19:55;5.33;;;4.83;;
12950;SDS011;6540;50.858;7.232;2023-02-03T13:22:24;7.33;;;4.70;;
12950;SDS011;6540;50.858;7.232;2023-02-03T13:24:52;9.77;;;5.13;;
12950;SDS011;6540;50.858;7.232;2023-02-03T13:44:04;10.80;;;6.47;;
12950;SDS011;6540;50.858;7.232;2023-02-03T13:46:41;6.27;;;5.67;;
12950;SDS011;6540;50.858;7.232;2023-02-03T13:49:15;9.77;;;6.23;;
12950;SDS011;6540;50.858;7.232;2023-02-03T13:51:47;10.60;;;7.17;;
12950;SDS011;6540;50.858;7.232;2023-02-03T13:54:13;8.93;;;6.60;;
12950;SDS011;6540;50.858;7.232;2023-02-03T13:57:48;9.80;;;7.10;;
12950;SDS011;6540;50.858;7.232;2023-02-03T14:00:03;9.30;;;6.37;;
12950;SDS011;6540;50.858;7.232;2023-02-03T14:02:52;9.40;;;6.73;;
12950;SDS011;6540;50.858;7.232;2023-02-03T14:05:37;18.07;;;8.97;;
12950;SDS011;6540;50.858;7.232;2023-02-03T14:16:36;13.87;;;7.67;;
12950;SDS011;6540;50.858;7.232;2023-02-03T14:19:01;12.47;;;8.23;;
12950;SDS011;6540;50.858;7.232;2023-02-03T14:21:28;15.47;;;9.67;;
12950;SDS011;6540;50.858;7.232;2023-02-03T14:24:16;15.37;;;9.23;;
12950;SDS011;6540;50.858;7.232;2023-02-03T14:26:53;11.60;;;8.60;;
12950;SDS011;6540;50.858;7.232;2023-02-03T14:29:25;11.53;;;8.07;;
12950;SDS011;6540;50.858;7.232;2023-02-03T14:32:03;11.17;;;7.70;;
12950;SDS011;6540;50.858;7.232;2023-02-03T14:34:43;10.17;;;8.00;;
12950;SDS011;6540;50.858;7.232;2023-02-03T14:40:02;13.60;;;8.03;;
12950;SDS011;6540;50.858;7.232;2023-02-03T14:45:34;15.20;;;8.83;;
12950;SDS011;6540;50.858;7.232;2023-02-03T14:53:34;10.93;;;7.50;;
12950;SDS011;6540;50.858;7.232;2023-02-03T14:59:24;10.30;;;8.23;;
12950;SDS011;6540;50.858;7.232;2023-02-03T15:02:07;14.00;;;7.33;;
12950;SDS011;6540;50.858;7.232;2023-02-03T15:04:35;11.77;;;6.77;;
12950;SDS011;6540;50.858;7.232;2023-02-03T15:07:01;7.53;;;6.60;;
12950;SDS011;6540;50.858;7.232;2023-02-03T15:09:40;19.73;;;7.83;;
12950;SDS011;6540;50.858;7.232;2023-02-03T15:12:22;9.57;;;7.17;;
12950;SDS011;6540;50.858;7.232;2023-02-03T15:14:50;12.17;;;7.03;;
12950;SDS011;6540;50.858;7.232;2023-02-03T15:19:48;8.23;;;6.93;;
12950;SDS011;6540;50.858;7.232;2023-02-03T15:24:45;9.57;;;7.03;;
12950;SDS011;6540;50.858;7.232;2023-02-03T15:29:54;7.47;;;6.70;;
12950;SDS011;6540;50.858;7.232;2023-02-03T15:32:39;10.13;;;6.50;;
12950;SDS011;6540;50.858;7.232;2023-02-03T15:35:09;7.87;;;6.70;;
12950;SDS011;6540;50.858;7.232;2023-02-03T15:37:42;6.73;;;5.87;;
12950;SDS011;6540;50.858;7.232;2023-02-03T15:40:29;6.87;;;6.17;;
12950;SDS011;6540;50.858;7.232;2023-02-03T15:48:29;11.17;;;7.03;;
12950;SDS011;6540;50.858;7.232;2023-02-03T15:51:08;10.53;;;6.03;;
12950;SDS011;6540;50.858;7.232;2023-02-03T15:53:54;10.00;;;6.13;;
12950;SDS011;6540;50.858;7.232;2023-02-03T15:59:37;9.60;;;6.40;;
12950;SDS011;6540;50.858;7.232;2023-02-03T16:02:12;9.57;;;7.17;;
12950;SDS011;6540;50.858;7.232;2023-02-03T16:04:41;9.17;;;6.80;;
12950;SDS011;6540;50.858;7.232;2023-02-03T16:07:12;8.00;;;5.97;;
12950;SDS011;6540;50.858;7.232;2023-02-03T16:09:45;10.17;;;5.50;;
12950;SDS011;6540;50.858;7.232;2023-02-03T16:14:45;8.40;;;5.63;;
12950;SDS011;6540;50.858;7.232;2023-02-03T16:22:35;8.80;;;4.00;;
12950;SDS011;6540;50.858;7.232;2023-02-03T16:25:22;7.23;;;4.17;;
12950;SDS011;6540;50.858;7.232;2023-02-03T16:27:59;4.67;;;3.40;;
12950;SDS011;6540;50.858;7.232;2023-02-03T16:31:14;4.40;;;3.27;;
12950;SDS011;6540;50.858;7.232;2023-02-03T16:34:11;3.13;;;2.43;;
12950;SDS011;6540;50.858;7.232;2023-02-03T16:36:57;7.57;;;3.53;;
12950;SDS011;6540;50.858;7.232;2023-02-03T16:39:42;9.03;;;3.33;;
12950;SDS011;6540;50.858;7.232;2023-02-03T16:42:28;8.93;;;3.53;;
12950;SDS011;6540;50.858;7.232;2023-02-03T16:45:20;7.57;;;3.67;;
12950;SDS011;6540;50.858;7.232;2023-02-03T16:48:04;11.53;;;3.97;;
12950;SDS011;6540;50.858;7.232;2023-02-03T16:50:48;10.80;;;4.47;;
12950;SDS011;6540;50.858;7.232;2023-02-03T16:53:40;11.10;;;3.83;;
12950;SDS011;6540;50.858;7.232;2023-02-03T16:56:12;6.03;;;5.40;;
12950;SDS011;6540;50.858;7.232;2023-02-03T16:58:38;9.87;;;3.03;;
12950;SDS011;6540;50.858;7.232;2023-02-03T17:01:04;12.73;;;5.43;;
12950;SDS011;6540;50.858;7.232;2023-02-03T17:03:32;11.23;;;4.30;;
12950;SDS011;6540;50.858;7.232;2023-02-03T17:06:03;9.17;;;3.60;;
12950;SDS011;6540;50.858;7.232;2023-02-03T17:08:30;8.00;;;3.40;;
12950;SDS011;6540;50.858;7.232;2023-02-03T17:11:00;11.23;;;4.50;;
12950;SDS011;6540;50.858;7.232;2023-02-03T17:13:26;9.23;;;4.13;;
12950;SDS011;6540;50.858;7.232;2023-02-03T17:15:52;7.43;;;3.57;;
12950;SDS011;6540;50.858;7.232;2023-02-03T17:18:17;3.93;;;2.60;;
12950;SDS011;6540;50.858;7.232;2023-02-03T17:20:43;11.33;;;3.50;;
12950;SDS011;6540;50.858;7.232;2023-02-03T17:23:09;6.50;;;3.03;;
12950;SDS011;6540;50.858;7.232;2023-02-03T17:25:35;11.37;;;4.77;;
12950;SDS011;6540;50.858;7.232;2023-02-03T17:28:02;11.97;;;5.17;;
12950;SDS011;6540;50.858;7.232;2023-02-03T17:30:28;6.33;;;3.37;;
12950;SDS011;6540;50.858;7.232;2023-02-03T17:32:57;22.37;;;11.90;;
12950;SDS011;6540;50.858;7.232;2023-02-03T17:35:24;10.47;;;4.37;;
12950;SDS011;6540;50.858;7.232;2023-02-03T17:37:49;8.57;;;4.20;;
12950;SDS011;6540;50.858;7.232;2023-02-03T17:40:15;13.63;;;3.93;;
12950;SDS011;6540;50.858;7.232;2023-02-03T17:42:40;5.77;;;3.70;;
12950;SDS011;6540;50.858;7.232;2023-02-03T17:45:06;10.57;;;3.43;;
12950;SDS011;6540;50.858;7.232;2023-02-03T17:47:31;13.07;;;3.53;;
12950;SDS011;6540;50.858;7.232;2023-02-03T17:49:57;8.90;;;3.40;;
12950;SDS011;6540;50.858;7.232;2023-02-03T17:52:22;7.17;;;2.77;;
12950;SDS011;6540;50.858;7.232;2023-02-03T17:54:47;8.90;;;3.33;;
12950;SDS011;6540;50.858;7.232;2023-02-03T17:57:13;13.33;;;3.97;;
12950;SDS011;6540;50.858;7.232;2023-02-03T17:59:38;10.13;;;3.40;;
12950;SDS011;6540;50.858;7.232;2023-02-03T18:02:03;11.00;;;3.37;;
12950;SDS011;6540;50.858;7.232;2023-02-03T18:04:29;7.23;;;3.77;;